Time;durP1;ratioP1;P1;durP2;ratioP2;P2;SDS_P1;SDS_P2;PMS_P1;PMS_P2;Temp;Humidity;BMP_temperature;BMP_pressure;BME280_temperature;BME280_humidity;BME280_pressure;Samples;Min_cycle;Max_cycle;Signal;HPM_P1;HPM_P2
2021/11/20 00:01:58;;;;;;;2.33;2.07;;;11.50;93.80;;;;;;5057389;28;20210;-70
2021/11/20 00:04:25;;;;;;;7.30;4.73;;;11.50;93.80;;;;;;5056085;28;20226;-70
2021/11/20 00:06:55;;;;;;;3.87;3.57;;;11.40;93.80;;;;;;5057195;28;20215;-70
2021/11/20 00:09:24;;;;;;;7.20;3.53;;;11.40;93.90;;;;;;5055663;28;20228;-70
2021/11/20 00:11:55;;;;;;;1.70;1.60;;;11.40;94.00;;;;;;5057124;28;20218;-70
2021/11/20 00:14:24;;;;;;;4.23;2.70;;;11.30;94.10;;;;;;5061374;28;20228;-70
2021/11/20 00:16:52;;;;;;;2.20;2.10;;;11.30;94.20;;;;;;5059794;28;20218;-70
2021/11/20 00:19:22;;;;;;;3.50;3.23;;;11.30;94.20;;;;;;5070208;28;20226;-70
2021/11/20 00:22:15;;;;;;;3.03;2.47;;;11.30;94.20;;;;;;5061561;28;20213;-73
2021/11/20 00:24:47;;;;;;;2.70;2.30;;;11.20;94.20;;;;;;5068253;28;20575;-70
2021/11/20 00:27:22;;;;;;;4.10;2.93;;;11.20;94.30;;;;;;5070943;28;20210;-70
2021/11/20 00:30:25;;;;;;;3.23;2.37;;;11.20;94.40;;;;;;5071045;28;20222;-70
2021/11/20 00:32:56;;;;;;;2.33;2.23;;;11.30;94.40;;;;;;5060349;28;20218;-70
2021/11/20 00:35:35;;;;;;;2.80;2.60;;;11.30;94.40;;;;;;5061508;28;20209;-70
2021/11/20 00:38:04;;;;;;;1.63;1.27;;;11.30;94.40;;;;;;5067668;28;20225;-70
2021/11/20 00:40:46;;;;;;;15.67;1.77;;;11.40;94.40;;;;;;5062338;28;20250;-70
2021/11/20 00:43:15;;;;;;;1.80;1.70;;;11.40;94.40;;;;;;5065542;28;20248;-70
2021/11/20 00:45:43;;;;;;;24.60;4.50;;;11.40;94.40;;;;;;5065204;28;20561;-70
2021/11/20 00:48:11;;;;;;;2.73;2.50;;;11.50;94.40;;;;;;5064028;28;20608;-70
2021/11/20 00:50:42;;;;;;;2.13;1.97;;;11.50;94.40;;;;;;5064714;28;20210;-70
2021/11/20 00:53:10;;;;;;;4.60;4.10;;;11.50;94.30;;;;;;5054453;28;20255;-70
2021/11/20 00:55:37;;;;;;;6.00;2.63;;;11.50;94.30;;;;;;5054339;28;20234;-70
2021/11/20 00:58:05;;;;;;;1.50;1.50;;;11.50;94.30;;;;;;5063178;28;20211;-70
2021/11/20 01:00:43;;;;;;;1.87;0.87;;;11.50;94.30;;;;;;5059972;28;20643;-70
2021/11/20 01:03:10;;;;;;;3.70;1.93;;;11.50;94.30;;;;;;5071289;28;20240;-70
2021/11/20 01:05:38;;;;;;;2.60;2.40;;;11.50;94.20;;;;;;5063302;28;20276;-70
2021/11/20 01:08:07;;;;;;;5.70;2.77;;;11.50;94.10;;;;;;5067737;28;20215;-70
2021/11/20 01:10:36;;;;;;;1.57;1.47;;;11.50;94.10;;;;;;5063237;28;20216;-70
2021/11/20 01:13:05;;;;;;;2.27;2.13;;;11.50;94.10;;;;;;5069069;28;20206;-71
2021/11/20 01:15:40;;;;;;;1.13;1.07;;;11.50;94.00;;;;;;5064810;28;20221;-70
2021/11/20 01:18:09;;;;;;;3.43;2.53;;;11.40;94.10;;;;;;5069121;28;20217;-70
2021/11/20 01:20:38;;;;;;;11.33;2.73;;;11.50;94.10;;;;;;5055908;28;20707;-71
2021/11/20 01:23:05;;;;;;;2.20;2.10;;;11.50;94.10;;;;;;5058125;28;20600;-71
2021/11/20 01:25:33;;;;;;;2.77;2.37;;;11.50;94.10;;;;;;5053994;28;20604;-70
2021/11/20 01:28:01;;;;;;;2.10;2.00;;;11.50;94.10;;;;;;5054334;28;20268;-70
2021/11/20 01:30:28;;;;;;;3.50;1.80;;;11.50;94.10;;;;;;5070055;28;20677;-70
2021/11/20 01:32:56;;;;;;;3.57;3.10;;;11.50;94.10;;;;;;5073090;28;20217;-70
2021/11/20 01:35:24;;;;;;;2.57;2.37;;;11.50;94.40;;;;;;5066184;28;20558;-70
2021/11/20 01:37:52;;;;;;;5.53;3.33;;;11.50;94.10;;;;;;5059364;28;20236;-70
2021/11/20 01:40:22;;;;;;;3.40;2.13;;;11.50;94.10;;;;;;5059479;28;20254;-71
2021/11/20 01:42:49;;;;;;;3.10;1.40;;;11.50;94.10;;;;;;5060157;28;20286;-70
2021/11/20 01:45:23;;;;;;;3.37;1.23;;;11.50;94.10;;;;;;5066831;28;20210;-70
2021/11/20 01:47:53;;;;;;;1.20;1.20;;;11.50;94.10;;;;;;5068398;28;20214;-70
2021/11/20 01:50:36;;;;;;;4.83;2.63;;;11.50;94.10;;;;;;5068362;28;20229;-70
2021/11/20 01:53:25;;;;;;;1.27;1.17;;;11.50;94.00;;;;;;5059074;28;20222;-70
2021/11/20 01:56:01;;;;;;;3.53;2.87;;;11.50;94.00;;;;;;5063494;28;20210;-70
2021/11/20 01:58:51;;;;;;;9.37;5.27;;;11.40;93.60;;;;;;5065209;28;20226;-70
2021/11/20 02:01:24;;;;;;;0.87;0.87;;;11.30;93.70;;;;;;5062854;28;20219;-70
2021/11/20 02:04:07;;;;;;;2.37;2.00;;;11.30;93.70;;;;;;5063094;28;20267;-70
2021/11/20 02:06:55;;;;;;;9.20;3.83;;;11.20;93.70;;;;;;5063271;28;20206;-71
2021/11/20 02:09:41;;;;;;;4.03;2.13;;;11.20;93.70;;;;;;5064237;28;20217;-70
2021/11/20 02:12:22;;;;;;;3.40;2.53;;;11.20;93.90;;;;;;5063843;28;20217;-70
2021/11/20 02:14:49;;;;;;;7.47;2.40;;;11.20;94.00;;;;;;5062147;28;20294;-70
2021/11/20 02:17:21;;;;;;;3.13;2.30;;;11.20;94.00;;;;;;5065217;28;20266;-70
2021/11/20 02:19:54;;;;;;;3.03;2.73;;;11.30;94.00;;;;;;5066205;28;20251;-71
2021/11/20 02:22:36;;;;;;;12.50;3.37;;;11.30;94.00;;;;;;5066432;28;20225;-70
2021/11/20 02:25:03;;;;;;;2.27;2.17;;;11.30;94.00;;;;;;5059094;28;20248;-70
2021/11/20 02:27:40;;;;;;;3.53;3.27;;;11.30;94.00;;;;;;5067764;28;20614;-70
2021/11/20 02:30:12;;;;;;;3.23;3.03;;;11.30;94.00;;;;;;5068967;28;20635;-70
2021/11/20 02:32:39;;;;;;;2.37;2.20;;;11.30;94.00;;;;;;5062694;28;20222;-70
2021/11/20 02:35:08;;;;;;;15.27;6.00;;;11.30;94.00;;;;;;5060333;28;20225;-70
2021/11/20 02:37:35;;;;;;;7.87;2.50;;;11.40;94.10;;;;;;5070026;28;20229;-70
2021/11/20 02:40:04;;;;;;;3.30;2.13;;;11.40;94.10;;;;;;5069777;28;20249;-70
2021/11/20 02:42:31;;;;;;;7.00;5.20;;;11.40;94.10;;;;;;5072055;28;20663;-70
2021/11/20 02:44:58;;;;;;;2.03;1.93;;;11.40;94.10;;;;;;5072292;28;20237;-70
2021/11/20 02:47:31;;;;;;;5.90;3.53;;;11.40;94.10;;;;;;5056794;28;20220;-70
2021/11/20 02:49:59;;;;;;;1.87;1.73;;;11.40;94.10;;;;;;5057333;28;20211;-70
2021/11/20 02:52:26;;;;;;;6.90;3.57;;;11.40;94.10;;;;;;5059982;28;20850;-70
2021/11/20 02:54:53;;;;;;;8.07;4.40;;;11.40;94.10;;;;;;5075615;28;20636;-70
2021/11/20 02:57:22;;;;;;;2.37;2.17;;;11.40;94.10;;;;;;5074742;28;20218;-70
2021/11/20 02:59:49;;;;;;;10.83;3.10;;;11.40;94.00;;;;;;5056838;28;20214;-70
2021/11/20 03:02:17;;;;;;;1.67;1.60;;;11.40;94.00;;;;;;5066569;28;20588;-70
2021/11/20 03:04:45;;;;;;;4.17;3.73;;;11.40;94.10;;;;;;5067723;28;20234;-70
2021/11/20 03:07:12;;;;;;;2.77;2.57;;;11.40;94.10;;;;;;5059969;28;20214;-70
2021/11/20 03:09:40;;;;;;;12.87;3.00;;;11.40;94.10;;;;;;5066468;28;20620;-70
2021/11/20 03:12:10;;;;;;;6.13;1.43;;;11.40;94.10;;;;;;5064346;28;20213;-70
2021/11/20 03:14:38;;;;;;;2.80;2.60;;;11.40;94.40;;;;;;5065482;28;20654;-70
2021/11/20 03:17:08;;;;;;;2.03;1.77;;;11.40;94.10;;;;;;5069565;28;20217;-70
2021/11/20 03:19:40;;;;;;;5.60;4.20;;;11.40;94.10;;;;;;5063114;28;20213;-70
2021/11/20 03:22:12;;;;;;;2.67;2.40;;;11.40;94.10;;;;;;5067950;28;20222;-70
2021/11/20 03:24:39;;;;;;;4.17;3.23;;;11.40;94.10;;;;;;5069143;28;20233;-70
2021/11/20 03:27:06;;;;;;;2.87;2.67;;;11.40;94.10;;;;;;5065307;28;20218;-70
2021/11/20 03:29:35;;;;;;;4.70;3.43;;;11.40;94.10;;;;;;5066776;28;20206;-70
2021/11/20 03:32:02;;;;;;;5.53;1.87;;;11.40;94.10;;;;;;5064306;28;20225;-71
2021/11/20 03:34:32;;;;;;;1.17;1.17;;;11.40;94.00;;;;;;5065682;28;20221;-70
2021/11/20 03:37:00;;;;;;;8.23;3.87;;;11.40;94.00;;;;;;5071468;28;20253;-70
2021/11/20 03:39:27;;;;;;;5.33;2.47;;;11.40;94.00;;;;;;5064878;28;20668;-70
2021/11/20 03:41:54;;;;;;;10.37;3.30;;;11.40;94.00;;;;;;5064015;28;20210;-70
2021/11/20 03:44:22;;;;;;;2.17;2.07;;;11.40;94.00;;;;;;5065666;28;20234;-70
2021/11/20 03:46:49;;;;;;;12.43;2.47;;;11.50;94.00;;;;;;5068840;28;20201;-70
2021/11/20 03:49:16;;;;;;;3.40;3.10;;;11.40;94.00;;;;;;5071418;28;20218;-70
2021/11/20 03:51:44;;;;;;;5.03;3.67;;;11.50;94.00;;;;;;5059202;28;20562;-70
2021/11/20 03:54:11;;;;;;;1.37;1.37;;;11.50;94.00;;;;;;5059094;28;20727;-71
2021/11/20 03:56:39;;;;;;;4.47;2.17;;;11.50;94.00;;;;;;5060636;28;20287;-70
2021/11/20 03:59:07;;;;;;;8.90;2.97;;;11.50;93.90;;;;;;5058220;28;20225;-70
2021/11/20 04:01:34;;;;;;;6.43;3.67;;;11.50;93.90;;;;;;5056595;28;20214;-70
2021/11/20 04:04:02;;;;;;;5.90;3.10;;;11.50;93.90;;;;;;5056816;28;20575;-70
2021/11/20 04:06:30;;;;;;;1.30;1.27;;;11.40;93.80;;;;;;5067219;28;20225;-71
2021/11/20 04:08:57;;;;;;;1.47;1.37;;;11.40;93.80;;;;;;5054806;28;20220;-70
2021/11/20 04:11:31;;;;;;;5.23;2.20;;;11.40;93.80;;;;;;5068356;28;20220;-70
2021/11/20 04:13:59;;;;;;;5.10;3.17;;;11.40;93.70;;;;;;5070878;28;20214;-70
2021/11/20 04:16:27;;;;;;;5.87;3.40;;;11.40;93.70;;;;;;5063165;28;20229;-70
2021/11/20 04:18:54;;;;;;;1.80;1.70;;;11.40;93.50;;;;;;5072870;28;20297;-70
2021/11/20 04:21:22;;;;;;;9.10;3.43;;;11.40;93.50;;;;;;5072162;28;20205;-70
2021/11/20 04:23:50;;;;;;;8.23;3.53;;;11.40;93.50;;;;;;5058882;28;20668;-70
2021/11/20 04:26:20;;;;;;;8.60;3.43;;;11.40;93.50;;;;;;5059259;28;20217;-70
2021/11/20 04:28:47;;;;;;;18.00;3.60;;;11.40;93.50;;;;;;5061139;28;20206;-70
2021/11/20 04:31:15;;;;;;;10.20;4.77;;;11.40;93.50;;;;;;5059044;28;20223;-70
2021/11/20 04:33:43;;;;;;;4.17;2.10;;;11.40;93.50;;;;;;5068928;28;20271;-70
2021/11/20 04:36:11;;;;;;;6.70;3.57;;;11.40;93.50;;;;;;5054545;28;20221;-71
2021/11/20 04:38:38;;;;;;;7.13;5.63;;;11.40;93.50;;;;;;5058664;28;20221;-71
2021/11/20 04:41:06;;;;;;;1.40;1.37;;;11.40;93.50;;;;;;5062498;28;20336;-70
2021/11/20 04:43:33;;;;;;;3.60;3.27;;;11.40;93.50;;;;;;5071199;28;20279;-70
2021/11/20 04:46:00;;;;;;;8.47;5.97;;;11.40;93.50;;;;;;5064793;28;20225;-70
2021/11/20 04:48:28;;;;;;;1.43;1.40;;;11.40;93.50;;;;;;5063242;28;20309;-70
2021/11/20 04:50:57;;;;;;;4.17;1.37;;;11.40;93.20;;;;;;5064158;28;20218;-70
2021/11/20 04:53:27;;;;;;;7.27;3.47;;;11.30;93.20;;;;;;5062769;28;20235;-70
2021/11/20 04:55:57;;;;;;;2.50;2.40;;;11.30;93.30;;;;;;5065749;28;20225;-70
2021/11/20 04:58:26;;;;;;;4.97;3.43;;;11.30;93.40;;;;;;5054626;28;20215;-70
2021/11/20 05:00:56;;;;;;;2.77;2.57;;;11.30;93.40;;;;;;5059285;28;20222;-70
2021/11/20 05:03:24;;;;;;;4.80;4.07;;;11.30;93.40;;;;;;5067135;28;20222;-70
2021/11/20 05:05:54;;;;;;;3.47;2.13;;;11.30;93.50;;;;;;5067023;28;20240;-70
2021/11/20 05:08:22;;;;;;;4.43;4.07;;;11.40;93.50;;;;;;5065426;28;20283;-70
2021/11/20 05:10:51;;;;;;;10.67;4.20;;;11.40;93.40;;;;;;5067658;28;20202;-71
2021/11/20 05:13:20;;;;;;;2.37;2.27;;;11.40;93.40;;;;;;5058306;28;20636;-70
2021/11/20 05:15:49;;;;;;;1.80;1.13;;;11.40;93.30;;;;;;5059632;28;20218;-70
2021/11/20 05:18:17;;;;;;;4.57;3.40;;;11.40;93.30;;;;;;5062389;28;20687;-70
2021/11/20 05:20:45;;;;;;;3.07;2.20;;;11.40;93.30;;;;;;5053475;28;20219;-70
2021/11/20 05:23:14;;;;;;;4.37;4.07;;;11.40;93.30;;;;;;5053769;28;20210;-70
2021/11/20 05:25:42;;;;;;;4.13;3.73;;;11.40;93.10;;;;;;5066516;28;20230;-70
2021/11/20 05:28:09;;;;;;;6.80;3.90;;;11.30;92.90;;;;;;5073514;28;20221;-70
2021/11/20 05:30:40;;;;;;;1.77;1.67;;;11.30;92.70;;;;;;5054114;28;20674;-70
2021/11/20 05:33:12;;;;;;;2.93;1.77;;;11.20;92.80;;;;;;5054657;28;20292;-70
2021/11/20 05:35:40;;;;;;;4.30;4.03;;;11.10;93.00;;;;;;5055938;28;20658;-70
2021/11/20 05:38:08;;;;;;;3.17;2.97;;;11.10;93.00;;;;;;5062742;28;20218;-70
2021/11/20 05:40:37;;;;;;;3.37;2.50;;;11.10;93.00;;;;;;5054941;28;20238;-70
2021/11/20 05:43:07;;;;;;;4.00;3.40;;;11.00;93.00;;;;;;5058389;28;20218;-70
2021/11/20 05:45:37;;;;;;;3.63;3.33;;;11.10;93.20;;;;;;5066064;28;20237;-70
2021/11/20 05:48:05;;;;;;;2.83;2.37;;;11.10;93.20;;;;;;5058187;28;20230;-70
2021/11/20 05:50:33;;;;;;;6.63;2.50;;;11.10;93.20;;;;;;5064919;28;20210;-70
2021/11/20 05:53:00;;;;;;;26.97;4.77;;;11.10;93.20;;;;;;5066660;28;20214;-70
2021/11/20 05:55:32;;;;;;;7.70;5.67;;;11.20;93.30;;;;;;5065957;28;20222;-70
2021/11/20 05:57:59;;;;;;;3.50;3.13;;;11.20;93.20;;;;;;5066078;28;20224;-70
2021/11/20 06:00:29;;;;;;;9.43;2.53;;;11.20;93.00;;;;;;5064974;28;20609;-70
2021/11/20 06:02:59;;;;;;;2.37;2.20;;;11.10;92.90;;;;;;5069308;28;20216;-70
2021/11/20 06:05:28;;;;;;;8.33;3.70;;;11.00;93.00;;;;;;5064386;28;20260;-70
2021/11/20 06:07:55;;;;;;;6.57;5.60;;;11.00;93.00;;;;;;5064622;28;20250;-70
2021/11/20 06:10:22;;;;;;;13.90;4.00;;;11.00;93.10;;;;;;5065366;28;20209;-70
2021/11/20 06:12:49;;;;;;;2.57;2.47;;;10.90;93.20;;;;;;5061795;28;20206;-70
2021/11/20 06:15:17;;;;;;;3.93;3.63;;;10.80;93.20;;;;;;5070628;28;20762;-70
2021/11/20 06:17:44;;;;;;;2.33;1.87;;;10.80;93.30;;;;;;5063390;28;20229;-70
2021/11/20 06:20:11;;;;;;;16.33;4.63;;;10.80;93.30;;;;;;5062377;28;20217;-70
2021/11/20 06:22:39;;;;;;;3.27;3.07;;;10.80;93.40;;;;;;5062714;28;20253;-70
2021/11/20 06:25:08;;;;;;;2.67;1.93;;;10.80;93.50;;;;;;5058457;28;20296;-71
2021/11/20 06:27:36;;;;;;;17.77;1.93;;;10.80;93.60;;;;;;5066115;28;20274;-70
2021/11/20 06:30:06;;;;;;;4.07;2.97;;;10.80;93.60;;;;;;5069263;28;20214;-70
2021/11/20 06:32:33;;;;;;;8.07;3.43;;;10.80;93.60;;;;;;5068730;28;20210;-70
2021/11/20 06:35:00;;;;;;;6.60;4.93;;;10.80;93.60;;;;;;5068620;28;20515;-70
2021/11/20 06:37:27;;;;;;;2.50;2.40;;;10.90;93.70;;;;;;5066534;28;20219;-70
2021/11/20 06:39:54;;;;;;;4.97;2.67;;;10.90;93.70;;;;;;5069817;28;20249;-70
2021/11/20 06:42:21;;;;;;;7.23;3.70;;;11.00;93.70;;;;;;5065067;28;20229;-70
2021/11/20 06:44:48;;;;;;;8.87;4.27;;;11.00;93.60;;;;;;5064410;28;20242;-70
2021/11/20 06:47:15;;;;;;;3.43;2.47;;;11.00;93.50;;;;;;5062380;28;20205;-70
2021/11/20 06:49:43;;;;;;;11.03;2.43;;;11.00;93.50;;;;;;5062651;28;20237;-70
2021/11/20 06:52:10;;;;;;;1.87;1.77;;;11.00;93.60;;;;;;5071519;28;20214;-70
2021/11/20 06:54:37;;;;;;;8.37;4.63;;;11.00;93.60;;;;;;5067455;28;20629;-71
2021/11/20 06:57:05;;;;;;;8.67;3.60;;;11.00;93.60;;;;;;5070860;28;20291;-70
2021/11/20 07:02:32;;;;;;;3.43;2.17;;;11.10;93.60;;;;;;5052463;28;20226;-70
2021/11/20 07:05:00;;;;;;;2.93;2.73;;;11.10;93.60;;;;;;5054950;28;20237;-71
2021/11/20 07:07:28;;;;;;;9.60;4.10;;;11.10;93.60;;;;;;5052365;28;20225;-70
2021/11/20 07:09:56;;;;;;;8.20;3.20;;;11.10;93.60;;;;;;5053318;28;20271;-70
2021/11/20 07:12:23;;;;;;;11.23;4.10;;;11.10;93.40;;;;;;5057079;28;20218;-70
2021/11/20 07:14:50;;;;;;;2.17;2.07;;;11.10;93.30;;;;;;5062240;28;20213;-70
2021/11/20 07:17:17;;;;;;;11.63;5.50;;;11.10;93.00;;;;;;5065591;28;20283;-70
2021/11/20 07:19:45;;;;;;;7.87;3.57;;;11.00;93.10;;;;;;5064959;28;20667;-70
2021/11/20 07:22:12;;;;;;;2.50;2.17;;;11.00;93.10;;;;;;5065745;28;20241;-70
2021/11/20 07:24:39;;;;;;;3.83;2.40;;;10.90;93.20;;;;;;5059493;28;20242;-70
2021/11/20 07:27:07;;;;;;;5.37;2.20;;;10.90;93.30;;;;;;5061819;28;20232;-70
2021/11/20 07:29:34;;;;;;;5.13;4.17;;;10.90;93.40;;;;;;5067298;28;20207;-70
2021/11/20 07:32:01;;;;;;;2.67;2.43;;;11.00;93.40;;;;;;5066828;28;20221;-70
2021/11/20 07:34:29;;;;;;;5.03;3.30;;;11.00;93.40;;;;;;5068033;28;20210;-70
2021/11/20 07:36:58;;;;;;;5.87;2.77;;;11.00;93.40;;;;;;5067883;28;20214;-70
2021/11/20 07:39:26;;;;;;;2.83;1.80;;;11.10;93.30;;;;;;5067607;28;20300;-70
2021/11/20 07:41:53;;;;;;;5.10;3.40;;;11.10;93.30;;;;;;5061069;28;20213;-70
2021/11/20 07:44:20;;;;;;;3.70;2.43;;;11.10;93.30;;;;;;5067537;28;20424;-70
2021/11/20 07:46:48;;;;;;;3.63;3.43;;;11.10;93.30;;;;;;5070479;28;20221;-70
2021/11/20 07:49:15;;;;;;;1.90;1.80;;;11.20;93.40;;;;;;5064911;28;20387;-70
2021/11/20 07:51:43;;;;;;;3.50;2.13;;;11.20;93.40;;;;;;5061698;28;20276;-70
2021/11/20 07:54:11;;;;;;;8.03;2.80;;;11.20;93.40;;;;;;5062323;28;20222;-70
2021/11/20 07:56:41;;;;;;;6.30;2.63;;;11.20;93.30;;;;;;5069352;28;20210;-70
2021/11/20 07:59:15;;;;;;;4.83;2.60;;;11.20;93.40;;;;;;5070659;28;20217;-70
2021/11/20 08:01:43;;;;;;;13.50;5.10;;;11.30;93.30;;;;;;5055777;28;20236;-70
2021/11/20 08:04:12;;;;;;;1.63;1.53;;;11.30;93.10;;;;;;5055755;28;20310;-70
2021/11/20 08:06:39;;;;;;;8.73;2.13;;;11.20;93.00;;;;;;5060620;28;20230;-70
2021/11/20 08:09:09;;;;;;;7.07;3.40;;;11.20;92.90;;;;;;5064684;28;20578;-70
2021/11/20 08:11:38;;;;;;;3.00;2.80;;;11.20;93.00;;;;;;5073235;28;20217;-70
2021/11/20 08:14:06;;;;;;;3.17;2.90;;;11.10;93.00;;;;;;5066712;28;20225;-70
2021/11/20 08:16:37;;;;;;;1.90;1.80;;;11.10;92.90;;;;;;5056369;28;20229;-70
2021/11/20 08:19:06;;;;;;;3.17;2.60;;;11.10;92.90;;;;;;5065039;28;20214;-70
2021/11/20 08:21:33;;;;;;;7.63;3.47;;;11.10;93.00;;;;;;5071003;28;20367;-70
2021/11/20 08:24:00;;;;;;;4.27;3.07;;;11.00;92.90;;;;;;5071653;28;20211;-70
2021/11/20 08:26:35;;;;;;;3.87;2.37;;;11.00;93.00;;;;;;5060818;28;20249;-70
2021/11/20 08:29:15;;;;;;;2.07;1.97;;;11.00;93.10;;;;;;5061164;28;20206;-70
2021/11/20 08:31:44;;;;;;;2.67;2.47;;;11.00;93.20;;;;;;5069601;28;20218;-71
2021/11/20 08:34:13;;;;;;;7.63;4.63;;;11.00;93.10;;;;;;5068761;28;20218;-70
2021/11/20 08:36:40;;;;;;;3.60;3.03;;;11.00;93.20;;;;;;5067789;28;20597;-70
2021/11/20 08:39:09;;;;;;;2.93;2.30;;;11.00;93.20;;;;;;5064117;28;20219;-70
2021/11/20 08:41:37;;;;;;;2.83;2.60;;;11.00;93.20;;;;;;5063183;28;20554;-70
2021/11/20 08:44:04;;;;;;;18.80;2.90;;;11.00;93.20;;;;;;5063302;28;20225;-70
2021/11/20 08:46:33;;;;;;;2.83;2.23;;;11.00;93.20;;;;;;5054416;28;20238;-70
2021/11/20 08:49:03;;;;;;;3.37;2.93;;;11.00;93.30;;;;;;5061535;28;20211;-70
2021/11/20 08:51:31;;;;;;;26.37;3.37;;;11.00;93.30;;;;;;5054760;28;20210;-70
2021/11/20 08:53:58;;;;;;;3.87;3.27;;;11.00;93.20;;;;;;5061785;28;20643;-70
2021/11/20 08:56:27;;;;;;;2.43;2.23;;;11.00;93.40;;;;;;5051099;28;20228;-70
2021/11/20 08:58:54;;;;;;;7.03;3.60;;;11.10;93.40;;;;;;5063143;28;20222;-70
2021/11/20 09:01:25;;;;;;;3.03;2.43;;;11.10;93.40;;;;;;5066543;28;20229;-71
2021/11/20 09:04:21;;;;;;;2.27;2.13;;;11.20;93.40;;;;;;5065233;28;20211;-70
2021/11/20 09:07:03;;;;;;;1.37;1.37;;;11.20;93.30;;;;;;5064350;28;20298;-70
2021/11/20 09:09:45;;;;;;;3.03;2.77;;;11.30;93.30;;;;;;5062516;28;20643;-70
2021/11/20 09:12:36;;;;;;;1.67;1.57;;;11.30;93.20;;;;;;5065226;28;20232;-70
2021/11/20 09:15:13;;;;;;;5.53;2.10;;;11.30;93.20;;;;;;5067461;28;20214;-70
2021/11/20 09:17:43;;;;;;;4.60;3.53;;;11.30;93.00;;;;;;5070946;28;20275;-70
2021/11/20 09:20:11;;;;;;;2.87;2.60;;;11.30;92.80;;;;;;5061695;28;20602;-70
2021/11/20 09:22:39;;;;;;;1.63;0.90;;;11.30;92.80;;;;;;5056581;28;20214;-70
2021/11/20 09:25:07;;;;;;;2.10;1.97;;;11.20;93.00;;;;;;5055395;28;20325;-70
2021/11/20 09:27:55;;;;;;;3.10;1.93;;;11.30;93.10;;;;;;5059463;28;20614;-70
2021/11/20 09:30:32;;;;;;;5.00;2.43;;;11.30;92.90;;;;;;5060464;28;20347;-70
2021/11/20 09:32:59;;;;;;;0.67;0.67;;;11.30;92.90;;;;;;5055707;28;20202;-71
2021/11/20 09:35:26;;;;;;;2.33;2.13;;;11.30;92.70;;;;;;5062179;28;20568;-69
2021/11/20 09:37:53;;;;;;;1.47;1.47;;;11.30;92.60;;;;;;5061477;28;20396;-69
2021/11/20 09:40:23;;;;;;;5.57;1.07;;;11.20;92.60;;;;;;5062980;28;20249;-70
2021/11/20 09:42:53;;;;;;;1.20;1.03;;;11.20;92.70;;;;;;5064991;28;20218;-70
2021/11/20 09:45:24;;;;;;;4.23;1.60;;;11.20;93.10;;;;;;5062155;28;20304;-69
2021/11/20 09:47:55;;;;;;;1.83;0.73;;;11.30;92.90;;;;;;5060667;28;20643;-70
2021/11/20 09:50:35;;;;;;;3.30;1.83;;;11.40;92.80;;;;;;5060688;28;20308;-70
2021/11/20 09:53:03;;;;;;;1.37;1.37;;;11.40;92.80;;;;;;5060947;28;20213;-69
2021/11/20 09:55:37;;;;;;;2.00;1.60;;;11.50;92.80;;;;;;5064460;28;20210;-70
2021/11/20 09:58:12;;;;;;;2.13;1.00;;;11.50;92.70;;;;;;5065691;28;20226;-70
2021/11/20 10:01:16;;;;;;;1.93;1.83;;;11.50;92.60;;;;;;5066700;28;20635;-70
2021/11/20 10:03:46;;;;;;;3.83;3.13;;;11.50;92.70;;;;;;5063585;28;20225;-70
2021/11/20 10:06:29;;;;;;;2.70;1.70;;;11.60;92.60;;;;;;5063366;28;20256;-70
2021/11/20 10:09:22;;;;;;;8.13;2.13;;;11.60;92.70;;;;;;5065770;28;20210;-69
2021/11/20 10:12:17;;;;;;;2.83;1.63;;;11.60;92.60;;;;;;5064319;28;20213;-70
2021/11/20 10:14:58;;;;;;;3.40;1.70;;;11.60;92.60;;;;;;5062636;28;20213;-69
2021/11/20 10:17:31;;;;;;;1.90;1.43;;;11.70;92.60;;;;;;5063755;28;20205;-69
2021/11/20 10:20:01;;;;;;;1.10;1.10;;;11.60;92.60;;;;;;5063066;28;20233;-70
2021/11/20 10:22:46;;;;;;;2.70;2.50;;;11.60;92.50;;;;;;5064064;28;20210;-71
2021/11/20 10:25:16;;;;;;;0.50;0.50;;;11.60;92.50;;;;;;5062476;28;20220;-71
2021/11/20 10:28:16;;;;;;;1.27;1.20;;;11.70;92.50;;;;;;5059768;28;20209;-71
2021/11/20 10:31:13;;;;;;;1.30;1.10;;;11.70;92.50;;;;;;5065358;28;20232;-71
2021/11/20 10:33:48;;;;;;;1.40;1.37;;;11.70;92.50;;;;;;5063707;28;20218;-71
2021/11/20 10:36:32;;;;;;;1.30;1.30;;;11.60;92.40;;;;;;5062962;28;20663;-71
2021/11/20 10:39:06;;;;;;;1.30;1.20;;;11.60;92.40;;;;;;5058673;28;20210;-71
2021/11/20 10:41:33;;;;;;;3.80;2.13;;;11.70;92.40;;;;;;5065342;28;20213;-71
2021/11/20 10:44:26;;;;;;;2.97;1.20;;;11.70;92.00;;;;;;5064024;28;20300;-71
2021/11/20 10:47:02;;;;;;;4.93;0.80;;;11.60;92.10;;;;;;5054833;28;20234;-71
2021/11/20 10:50:05;;;;;;;0.93;0.93;;;11.60;92.30;;;;;;5061940;28;20240;-71
2021/11/20 10:52:57;;;;;;;5.13;2.37;;;11.60;92.20;;;;;;5056944;28;20225;-71
2021/11/20 11:09:20;;;;;;;38.33;16.03;;;20.60;68.30;;;;;;5077708;27;20925;-70
2021/11/20 11:12:01;;;;;;;30.37;15.67;;;18.90;67.30;;;;;;5067135;28;20224;-70
2021/11/20 11:14:50;;;;;;;39.93;17.57;;;17.20;67.20;;;;;;5064718;28;20252;-70
2021/11/20 11:17:42;;;;;;;30.53;17.37;;;15.70;72.40;;;;;;5073684;28;20326;-71
2021/11/20 11:20:46;;;;;;;30.67;16.80;;;14.50;77.30;;;;;;5082207;28;20245;-72
2021/11/20 11:23:13;;;;;;;32.37;16.73;;;13.60;79.80;;;;;;5079758;28;20220;-71
2021/11/20 11:25:59;;;;;;;38.13;18.00;;;12.90;82.60;;;;;;5080861;28;20649;-72
2021/11/20 11:28:45;;;;;;;36.07;18.90;;;12.50;85.20;;;;;;5082754;28;20224;-72
2021/11/20 11:31:34;;;;;;;36.43;18.80;;;12.20;87.70;;;;;;5081943;28;20241;-72
2021/11/20 11:34:17;;;;;;;33.80;17.90;;;12.00;89.60;;;;;;5078523;28;20210;-72
2021/11/20 11:37:01;;;;;;;34.90;18.60;;;11.90;90.40;;;;;;5082389;28;20218;-71
2021/11/20 11:39:46;;;;;;;40.00;19.77;;;11.80;90.80;;;;;;5080385;28;20214;-72
2021/11/20 11:42:32;;;;;;;35.90;19.07;;;11.80;91.00;;;;;;5078632;28;20220;-72
2021/11/20 11:45:28;;;;;;;44.37;20.47;;;11.70;91.20;;;;;;5079232;28;20247;-72
2021/11/20 11:48:14;;;;;;;32.57;17.73;;;11.70;91.10;;;;;;5086168;28;20227;-72
2021/11/20 11:50:51;;;;;;;35.70;18.50;;;11.60;91.20;;;;;;5077855;28;20744;-72
2021/11/20 11:53:40;;;;;;;34.73;17.07;;;11.60;91.40;;;;;;5086558;28;20676;-72
2021/11/20 11:56:10;;;;;;;33.00;17.30;;;11.60;91.60;;;;;;5083897;28;20304;-72
2021/11/20 11:58:52;;;;;;;38.07;18.63;;;11.60;91.50;;;;;;5082776;28;20241;-72
2021/11/20 12:01:24;;;;;;;32.37;18.90;;;11.60;91.70;;;;;;5077039;28;20560;-72
2021/11/20 12:04:05;;;;;;;32.53;18.37;;;11.50;91.80;;;;;;5075094;28;20214;-72
2021/11/20 12:07:01;;;;;;;39.27;18.90;;;11.60;91.80;;;;;;5086973;28;20208;-73
2021/11/20 12:09:36;;;;;;;36.60;18.70;;;11.60;91.80;;;;;;5062420;28;20557;-73
2021/11/20 12:12:14;;;;;;;40.57;20.07;;;11.60;91.80;;;;;;5084584;28;20208;-72
2021/11/20 12:14:44;;;;;;;38.00;19.03;;;11.60;91.80;;;;;;5079523;28;20214;-72
2021/11/20 12:17:29;;;;;;;38.23;20.73;;;11.50;92.20;;;;;;5072438;28;20211;-72
2021/11/20 12:20:42;;;;;;;33.83;17.50;;;11.50;91.90;;;;;;5066044;28;20240;-72
2021/11/20 12:23:34;;;;;;;27.17;15.80;;;11.50;91.70;;;;;;5065678;28;20206;-72
2021/11/20 12:26:35;;;;;;;30.43;17.07;;;11.30;91.00;;;;;;5060935;28;20305;-73
2021/11/20 12:29:17;;;;;;;30.00;16.70;;;11.20;91.40;;;;;;5061716;28;20213;-72
2021/11/20 12:32:29;;;;;;;29.50;16.47;;;11.00;91.50;;;;;;5069769;28;20217;-72
2021/11/20 12:35:10;;;;;;;28.40;16.10;;;10.90;91.80;;;;;;5046339;28;20215;-72
2021/11/20 12:37:53;;;;;;;27.60;16.40;;;10.80;92.10;;;;;;5070102;28;20704;-71
2021/11/20 12:40:42;;;;;;;30.43;16.63;;;10.80;92.50;;;;;;5066395;28;20218;-72
2021/11/20 12:43:28;;;;;;;30.03;15.90;;;10.80;92.70;;;;;;5070448;28;20273;-72
2021/11/20 12:46:06;;;;;;;29.63;16.17;;;10.80;92.70;;;;;;5073419;28;20554;-72
2021/11/20 12:49:05;;;;;;;30.50;15.53;;;10.90;92.90;;;;;;5068232;28;20244;-71
2021/11/20 12:51:50;;;;;;;28.57;15.33;;;10.90;92.10;;;;;;5082084;28;20218;-72
2021/11/20 12:54:32;;;;;;;25.13;15.90;;;10.90;91.80;;;;;;5065786;28;20578;-72
2021/11/20 12:57:39;;;;;;;29.00;15.07;;;10.90;92.10;;;;;;5065727;28;20272;-72
2021/11/20 13:00:09;;;;;;;29.40;16.23;;;10.90;92.30;;;;;;5063024;28;20236;-73
2021/11/20 13:02:48;;;;;;;30.53;16.47;;;10.90;92.50;;;;;;5070981;28;20237;-72
2021/11/20 13:05:48;;;;;;;29.87;16.50;;;11.00;92.60;;;;;;5064699;28;20233;-72
2021/11/20 13:08:29;;;;;;;30.10;17.30;;;11.00;92.60;;;;;;5064497;28;20241;-72
2021/11/20 13:11:31;;;;;;;28.73;17.47;;;11.00;92.40;;;;;;5071036;28;20232;-72
2021/11/20 13:14:07;;;;;;;31.60;17.50;;;11.00;92.10;;;;;;5068448;28;20317;-72
2021/11/20 13:16:59;;;;;;;32.20;17.40;;;11.00;92.20;;;;;;5067034;28;20301;-72
2021/11/20 13:20:13;;;;;;;28.77;16.47;;;11.00;92.30;;;;;;5064008;28;20214;-72
2021/11/20 13:22:42;;;;;;;24.57;15.57;;;11.00;92.30;;;;;;5064329;28;20215;-72
2021/11/20 13:25:22;;;;;;;25.00;15.40;;;11.00;92.30;;;;;;5061850;28;20691;-72
2021/11/20 13:28:03;;;;;;;23.90;14.80;;;11.10;92.30;;;;;;5063938;28;20553;-72
2021/11/20 13:30:36;;;;;;;24.80;14.63;;;11.10;92.20;;;;;;5071808;28;20228;-72
2021/11/20 13:33:05;;;;;;;25.57;15.67;;;11.10;92.10;;;;;;5069137;28;20638;-72